sensor_id;sensor_type;location;lat;lon;timestamp;pressure;altitude;pressure_sealevel;temperature;humidity
59240;BME280;45010;53.640;10.578;2023-05-19T00:00:37;102226.16;;;25.78;29.85
59240;BME280;45010;53.640;10.578;2023-05-19T00:03:48;102224.50;;;25.77;29.84
59240;BME280;45010;53.640;10.578;2023-05-19T00:06:52;102211.34;;;25.69;29.74
59240;BME280;45010;53.640;10.578;2023-05-19T00:09:53;102220.38;;;25.74;29.75
59240;BME280;45010;53.640;10.578;2023-05-19T00:12:53;102220.56;;;25.73;29.70
59240;BME280;45010;53.640;10.578;2023-05-19T00:15:54;102219.97;;;25.71;30.07
59240;BME280;45010;53.640;10.578;2023-05-19T00:18:55;102222.03;;;25.69;29.86
59240;BME280;45010;53.640;10.578;2023-05-19T00:21:57;102218.72;;;25.67;29.82
59240;BME280;45010;53.640;10.578;2023-05-19T00:24:58;102222.41;;;25.65;29.85
59240;BME280;45010;53.640;10.578;2023-05-19T00:27:58;102219.13;;;25.63;30.01
59240;BME280;45010;53.640;10.578;2023-05-19T00:30:58;102221.16;;;25.61;29.89
59240;BME280;45010;53.640;10.578;2023-05-19T00:34:00;102221.16;;;25.61;29.87
59240;BME280;45010;53.640;10.578;2023-05-19T00:37:00;102221.59;;;25.58;30.01
59240;BME280;45010;53.640;10.578;2023-05-19T00:40:00;102220.31;;;25.54;30.12
59240;BME280;45010;53.640;10.578;2023-05-19T00:43:01;102216.63;;;25.55;29.98
59240;BME280;45010;53.640;10.578;2023-05-19T00:46:02;102205.06;;;25.48;30.11
59240;BME280;45010;53.640;10.578;2023-05-19T00:49:02;102219.53;;;25.54;30.07
59240;BME280;45010;53.640;10.578;2023-05-19T00:52:05;102207.94;;;25.46;30.04
59240;BME280;45010;53.640;10.578;2023-05-19T00:55:06;102218.03;;;25.51;29.97
59240;BME280;45010;53.640;10.578;2023-05-19T00:58:09;102209.16;;;25.44;30.31
59240;BME280;45010;53.640;10.578;2023-05-19T01:01:11;102219.47;;;25.47;30.21
59240;BME280;45010;53.640;10.578;2023-05-19T01:04:20;102215.16;;;25.46;30.30
59240;BME280;45010;53.640;10.578;2023-05-19T01:07:21;102205.47;;;25.38;30.15
59240;BME280;45010;53.640;10.578;2023-05-19T01:10:22;102207.53;;;25.43;29.85
59240;BME280;45010;53.640;10.578;2023-05-19T01:13:22;102209.56;;;25.41;30.35
59240;BME280;45010;53.640;10.578;2023-05-19T01:16:29;102198.06;;;25.33;30.29
59240;BME280;45010;53.640;10.578;2023-05-19T01:19:56;102208.97;;;25.38;30.26
59240;BME280;45010;53.640;10.578;2023-05-19T01:23:16;102213.66;;;25.36;30.36
59240;BME280;45010;53.640;10.578;2023-05-19T01:26:38;102218.38;;;25.34;30.26
59240;BME280;45010;53.640;10.578;2023-05-19T01:33:15;102213.44;;;25.31;30.40
59240;BME280;45010;53.640;10.578;2023-05-19T01:36:18;102195.53;;;25.18;30.23
59240;BME280;45010;53.640;10.578;2023-05-19T01:39:21;102220.81;;;25.29;30.26
59240;BME280;45010;53.640;10.578;2023-05-19T01:42:22;102196.75;;;25.16;30.20
59240;BME280;45010;53.640;10.578;2023-05-19T01:45:23;102222.88;;;25.27;30.38
59240;BME280;45010;53.640;10.578;2023-05-19T01:48:24;102223.91;;;25.26;30.28
59240;BME280;45010;53.640;10.578;2023-05-19T01:51:25;102223.28;;;25.24;30.33
59240;BME280;45010;53.640;10.578;2023-05-19T01:54:25;102222.66;;;25.22;30.47
59240;BME280;45010;53.640;10.578;2023-05-19T02:01:12;102232.69;;;25.20;30.38
59240;BME280;45010;53.640;10.578;2023-05-19T02:04:35;102228.38;;;25.19;30.55
59240;BME280;45010;53.640;10.578;2023-05-19T02:07:49;102233.09;;;25.17;30.44
59240;BME280;45010;53.640;10.578;2023-05-19T02:10:58;102197.06;;;24.99;30.41
59240;BME280;45010;53.640;10.578;2023-05-19T02:14:02;102227.16;;;25.15;30.42
59240;BME280;45010;53.640;10.578;2023-05-19T02:17:03;102214.59;;;25.08;30.48
59240;BME280;45010;53.640;10.578;2023-05-19T02:20:05;102218.50;;;25.12;30.47
59240;BME280;45010;53.640;10.578;2023-05-19T02:23:06;102214.78;;;25.07;30.57
59240;BME280;45010;53.640;10.578;2023-05-19T02:26:06;102223.22;;;25.10;30.41
59240;BME280;45010;53.640;10.578;2023-05-19T02:29:07;102219.72;;;25.10;30.29
59240;BME280;45010;53.640;10.578;2023-05-19T02:32:08;102217.25;;;25.08;30.51
59240;BME280;45010;53.640;10.578;2023-05-19T02:35:08;102219.09;;;25.08;30.45
59240;BME280;45010;53.640;10.578;2023-05-19T02:38:08;102220.94;;;25.07;30.49
59240;BME280;45010;53.640;10.578;2023-05-19T02:41:09;102214.78;;;25.07;30.57
59240;BME280;45010;53.640;10.578;2023-05-19T02:44:09;102219.28;;;25.06;30.69
59240;BME280;45010;53.640;10.578;2023-05-19T02:47:10;102220.31;;;25.05;30.42
59240;BME280;45010;53.640;10.578;2023-05-19T02:50:10;102205.28;;;24.97;30.67
59240;BME280;45010;53.640;10.578;2023-05-19T02:53:10;102216.19;;;25.03;30.56
59240;BME280;45010;53.640;10.578;2023-05-19T02:56:11;102203.03;;;25.01;30.54
59240;BME280;45010;53.640;10.578;2023-05-19T02:59:11;102197.06;;;24.99;30.60
59240;BME280;45010;53.640;10.578;2023-05-19T03:02:12;102197.06;;;24.99;30.58
59240;BME280;45010;53.640;10.578;2023-05-19T03:05:12;102206.13;;;24.98;30.55
59240;BME280;45010;53.640;10.578;2023-05-19T03:08:13;102192.53;;;24.93;30.49
59240;BME280;45010;53.640;10.578;2023-05-19T03:11:13;102203.63;;;24.96;30.80
59240;BME280;45010;53.640;10.578;2023-05-19T03:14:14;102202.81;;;24.96;30.55
59240;BME280;45010;53.640;10.578;2023-05-19T03:17:14;102202.81;;;24.96;30.55
59240;BME280;45010;53.640;10.578;2023-05-19T03:20:15;102204.84;;;24.94;30.57
59240;BME280;45010;53.640;10.578;2023-05-19T03:23:15;102199.50;;;24.94;30.68
59240;BME280;45010;53.640;10.578;2023-05-19T03:26:15;102197.88;;;24.93;30.81
59240;BME280;45010;53.640;10.578;2023-05-19T03:29:16;102203.22;;;24.93;30.61
59240;BME280;45010;53.640;10.578;2023-05-19T03:32:16;102201.56;;;24.92;30.56
59240;BME280;45010;53.640;10.578;2023-05-19T03:35:17;102198.91;;;24.92;30.89
59240;BME280;45010;53.640;10.578;2023-05-19T03:38:17;102203.59;;;24.90;30.58
59240;BME280;45010;53.640;10.578;2023-05-19T03:41:17;102208.94;;;24.90;30.72
59240;BME280;45010;53.640;10.578;2023-05-19T03:44:18;102206.25;;;24.90;30.85
59240;BME280;45010;53.640;10.578;2023-05-19T03:47:18;102206.47;;;24.88;30.77
59240;BME280;45010;53.640;10.578;2023-05-19T03:50:18;102213.66;;;24.88;30.79
59240;BME280;45010;53.640;10.578;2023-05-19T03:53:19;102202.16;;;24.87;30.69
59240;BME280;45010;53.640;10.578;2023-05-19T03:56:19;102200.50;;;24.86;30.71
59240;BME280;45010;53.640;10.578;2023-05-19T03:59:22;102210.16;;;24.87;30.69
59240;BME280;45010;53.640;10.578;2023-05-19T04:02:23;102207.69;;;24.85;30.88
59240;BME280;45010;53.640;10.578;2023-05-19T04:05:23;102218.38;;;24.85;30.68
59240;BME280;45010;53.640;10.578;2023-05-19T04:08:24;102216.72;;;24.84;30.72
59240;BME280;45010;53.640;10.578;2023-05-19T04:11:24;102214.06;;;24.84;30.91
59240;BME280;45010;53.640;10.578;2023-05-19T04:14:24;102213.03;;;24.85;30.67
59240;BME280;45010;53.640;10.578;2023-05-19T04:17:25;102196.50;;;24.75;30.78
59240;BME280;45010;53.640;10.578;2023-05-19T04:20:26;102209.72;;;24.83;30.84
59240;BME280;45010;53.640;10.578;2023-05-19T04:23:26;102206.44;;;24.81;30.89
59240;BME280;45010;53.640;10.578;2023-05-19T04:26:27;102203.75;;;24.81;30.88
59240;BME280;45010;53.640;10.578;2023-05-19T04:29:29;102211.75;;;24.81;30.74
59240;BME280;45010;53.640;10.578;2023-05-19T04:32:30;102210.97;;;24.81;30.86
59240;BME280;45010;53.640;10.578;2023-05-19T04:35:30;102211.13;;;24.79;30.96
59240;BME280;45010;53.640;10.578;2023-05-19T04:38:30;102220.75;;;24.80;31.24
59240;BME280;45010;53.640;10.578;2023-05-19T04:41:31;102221.78;;;24.79;30.82
59240;BME280;45010;53.640;10.578;2023-05-19T04:44:32;102216.44;;;24.79;31.10
59240;BME280;45010;53.640;10.578;2023-05-19T04:47:33;102203.03;;;24.66;30.75
59240;BME280;45010;53.640;10.578;2023-05-19T04:50:37;102224.66;;;24.78;30.90
59240;BME280;45010;53.640;10.578;2023-05-19T04:53:41;102228.16;;;24.78;30.98
59240;BME280;45010;53.640;10.578;2023-05-19T04:56:41;102231.63;;;24.79;30.84
59240;BME280;45010;53.640;10.578;2023-05-19T04:59:42;102221.13;;;24.77;30.94
59240;BME280;45010;53.640;10.578;2023-05-19T05:02:43;102226.47;;;24.77;30.96
59240;BME280;45010;53.640;10.578;2023-05-19T05:05:43;102222.81;;;24.78;30.91
59240;BME280;45010;53.640;10.578;2023-05-19T05:08:43;102222.81;;;24.78;31.10
59240;BME280;45010;53.640;10.578;2023-05-19T05:11:44;102226.28;;;24.79;30.90
59240;BME280;45010;53.640;10.578;2023-05-19T05:14:44;102228.16;;;24.78;31.02
59240;BME280;45010;53.640;10.578;2023-05-19T05:17:45;102217.47;;;24.78;30.93
59240;BME280;45010;53.640;10.578;2023-05-19T05:20:47;102221.97;;;24.78;31.07
59240;BME280;45010;53.640;10.578;2023-05-19T05:23:49;102219.13;;;24.79;31.07
59240;BME280;45010;53.640;10.578;2023-05-19T05:26:50;102226.47;;;24.77;31.26
59240;BME280;45010;53.640;10.578;2023-05-19T05:29:51;102221.13;;;24.77;31.00
59240;BME280;45010;53.640;10.578;2023-05-19T05:32:52;102221.13;;;24.77;31.16
59240;BME280;45010;53.640;10.578;2023-05-19T05:35:52;102215.81;;;24.77;31.18
59240;BME280;45010;53.640;10.578;2023-05-19T05:38:52;102199.72;;;24.64;31.03
59240;BME280;45010;53.640;10.578;2023-05-19T05:41:52;102230.81;;;24.78;31.09
59240;BME280;45010;53.640;10.578;2023-05-19T05:44:53;102235.50;;;24.76;31.14
59240;BME280;45010;53.640;10.578;2023-05-19T05:47:53;102207.09;;;24.62;31.24
59240;BME280;45010;53.640;10.578;2023-05-19T05:50:55;102230.81;;;24.78;31.29
59240;BME280;45010;53.640;10.578;2023-05-19T05:53:56;102235.13;;;24.79;31.24
59240;BME280;45010;53.640;10.578;2023-05-19T05:56:57;102227.13;;;24.79;31.16
59240;BME280;45010;53.640;10.578;2023-05-19T05:59:57;102222.81;;;24.78;31.11
59240;BME280;45010;53.640;10.578;2023-05-19T06:02:57;102227.13;;;24.79;31.62
59240;BME280;45010;53.640;10.578;2023-05-19T06:05:58;102221.13;;;24.77;31.29
59240;BME280;45010;53.640;10.578;2023-05-19T06:08:58;102225.47;;;24.78;31.37
59240;BME280;45010;53.640;10.578;2023-05-19T06:11:59;102225.47;;;24.78;31.23
59240;BME280;45010;53.640;10.578;2023-05-19T06:15:01;102231.81;;;24.77;31.21
59240;BME280;45010;53.640;10.578;2023-05-19T06:18:01;102231.00;;;24.77;31.52
59240;BME280;45010;53.640;10.578;2023-05-19T06:21:01;102231.81;;;24.77;31.36
59240;BME280;45010;53.640;10.578;2023-05-19T06:24:02;102237.97;;;24.78;31.35
59240;BME280;45010;53.640;10.578;2023-05-19T06:27:03;102238.81;;;24.78;31.29
59240;BME280;45010;53.640;10.578;2023-05-19T06:30:03;102241.50;;;24.78;31.38
59240;BME280;45010;53.640;10.578;2023-05-19T06:33:04;102238.81;;;24.78;31.43
59240;BME280;45010;53.640;10.578;2023-05-19T06:36:04;102225.22;;;24.73;31.57
59240;BME280;45010;53.640;10.578;2023-05-19T06:39:04;102240.47;;;24.79;31.44
59240;BME280;45010;53.640;10.578;2023-05-19T06:42:05;102230.16;;;24.76;31.49
59240;BME280;45010;53.640;10.578;2023-05-19T06:45:06;102228.53;;;24.75;31.47
59240;BME280;45010;53.640;10.578;2023-05-19T06:48:06;102233.84;;;24.75;31.53
59240;BME280;45010;53.640;10.578;2023-05-19T06:51:06;102230.56;;;24.73;31.66
59240;BME280;45010;53.640;10.578;2023-05-19T06:54:09;102242.09;;;24.80;31.82
59240;BME280;45010;53.640;10.578;2023-05-19T06:57:11;102237.63;;;24.81;31.30
59240;BME280;45010;53.640;10.578;2023-05-19T07:00:12;102228.16;;;24.78;31.63
59240;BME280;45010;53.640;10.578;2023-05-19T07:03:12;102236.78;;;24.80;31.53
59240;BME280;45010;53.640;10.578;2023-05-19T07:06:13;102233.09;;;24.81;31.69
59240;BME280;45010;53.640;10.578;2023-05-19T07:09:13;102236.78;;;24.80;31.69
59240;BME280;45010;53.640;10.578;2023-05-19T07:12:13;102243.78;;;24.81;31.72
59240;BME280;45010;53.640;10.578;2023-05-19T07:15:14;102242.97;;;24.81;31.71
59240;BME280;45010;53.640;10.578;2023-05-19T07:18:14;102243.78;;;24.81;31.75
59240;BME280;45010;53.640;10.578;2023-05-19T07:21:15;102248.47;;;24.79;32.08
59240;BME280;45010;53.640;10.578;2023-05-19T07:24:15;102247.44;;;24.80;31.65
59240;BME280;45010;53.640;10.578;2023-05-19T07:27:15;102248.31;;;24.81;31.68
59240;BME280;45010;53.640;10.578;2023-05-19T07:30:16;102247.44;;;24.80;31.83
59240;BME280;45010;53.640;10.578;2023-05-19T07:33:16;102251.94;;;24.80;31.68
59240;BME280;45010;53.640;10.578;2023-05-19T07:36:16;102250.09;;;24.80;31.64
59240;BME280;45010;53.640;10.578;2023-05-19T07:39:17;102237.56;;;24.74;31.81
59240;BME280;45010;53.640;10.578;2023-05-19T07:42:18;102244.63;;;24.82;31.44
59240;BME280;45010;53.640;10.578;2023-05-19T07:45:18;102251.59;;;24.83;31.61
59240;BME280;45010;53.640;10.578;2023-05-19T07:48:19;102248.31;;;24.81;31.48
59240;BME280;45010;53.640;10.578;2023-05-19T07:51:21;102251.13;;;24.79;31.64
59240;BME280;45010;53.640;10.578;2023-05-19T07:54:21;102242.09;;;24.80;31.56
59240;BME280;45010;53.640;10.578;2023-05-19T07:57:22;102243.78;;;24.81;31.53
59240;BME280;45010;53.640;10.578;2023-05-19T08:00:22;102250.97;;;24.81;31.58
59240;BME280;45010;53.640;10.578;2023-05-19T08:03:22;102243.78;;;24.81;31.62
59240;BME280;45010;53.640;10.578;2023-05-19T08:06:23;102245.44;;;24.82;31.57
59240;BME280;45010;53.640;10.578;2023-05-19T08:09:24;102242.09;;;24.80;31.55
59240;BME280;45010;53.640;10.578;2023-05-19T08:12:24;102245.81;;;24.79;31.48
59240;BME280;45010;53.640;10.578;2023-05-19T08:15:25;102250.75;;;24.82;31.40
59240;BME280;45010;53.640;10.578;2023-05-19T08:18:25;102214.47;;;24.60;31.64
59240;BME280;45010;53.640;10.578;2023-05-19T08:21:26;102240.47;;;24.79;31.64
59240;BME280;45010;53.640;10.578;2023-05-19T08:24:26;102228.59;;;24.82;31.91
59240;BME280;45010;53.640;10.578;2023-05-19T08:27:32;102233.94;;;24.82;31.67
59240;BME280;45010;53.640;10.578;2023-05-19T08:30:32;102233.72;;;24.83;31.61
59240;BME280;45010;53.640;10.578;2023-05-19T08:33:32;102226.56;;;24.84;31.50
59240;BME280;45010;53.640;10.578;2023-05-19T08:36:33;102236.00;;;24.87;31.56
59240;BME280;45010;53.640;10.578;2023-05-19T08:39:33;102219.13;;;24.79;31.25
59240;BME280;45010;53.640;10.578;2023-05-19T08:42:34;102230.28;;;24.90;31.33
59240;BME280;45010;53.640;10.578;2023-05-19T08:45:34;102231.34;;;24.95;31.24
59240;BME280;45010;53.640;10.578;2023-05-19T08:48:37;102213.03;;;24.92;31.24
59240;BME280;45010;53.640;10.578;2023-05-19T08:52:11;102219.88;;;25.02;31.11
59240;BME280;45010;53.640;10.578;2023-05-19T08:55:14;102212.25;;;24.98;31.08
59240;BME280;45010;53.640;10.578;2023-05-19T08:58:17;102215.59;;;25.07;31.06
59240;BME280;45010;53.640;10.578;2023-05-19T09:01:21;102193.16;;;24.95;31.02
59240;BME280;45010;53.640;10.578;2023-05-19T09:04:23;102181.47;;;24.96;30.82
59240;BME280;45010;53.640;10.578;2023-05-19T09:07:24;102210.28;;;25.14;30.61
59240;BME280;45010;53.640;10.578;2023-05-19T09:10:25;102214.00;;;25.20;30.84
59240;BME280;45010;53.640;10.578;2023-05-19T09:13:25;102196.34;;;25.12;30.63
59240;BME280;45010;53.640;10.578;2023-05-19T09:16:26;102215.25;;;25.24;30.62
59240;BME280;45010;53.640;10.578;2023-05-19T09:19:30;102211.56;;;25.25;30.54
59240;BME280;45010;53.640;10.578;2023-05-19T09:22:30;102197.59;;;25.23;30.49
59240;BME280;45010;53.640;10.578;2023-05-19T09:25:34;102205.41;;;25.31;30.42
59240;BME280;45010;53.640;10.578;2023-05-19T09:28:35;102206.06;;;25.33;30.54
59240;BME280;45010;53.640;10.578;2023-05-19T09:31:36;102202.19;;;25.36;30.18
59240;BME280;45010;53.640;10.578;2023-05-19T09:34:40;102186.94;;;25.30;30.35
59240;BME280;45010;53.640;10.578;2023-05-19T09:37:41;102196.22;;;25.41;30.25
59240;BME280;45010;53.640;10.578;2023-05-19T09:40:42;102196.84;;;25.43;30.45
59240;BME280;45010;53.640;10.578;2023-05-19T09:43:42;102194.81;;;25.45;30.28
59240;BME280;45010;53.640;10.578;2023-05-19T09:46:53;102198.09;;;25.47;30.36
59240;BME280;45010;53.640;10.578;2023-05-19T09:49:53;102187.41;;;25.47;30.19
59240;BME280;45010;53.640;10.578;2023-05-19T09:52:53;102192.13;;;25.51;30.05
59240;BME280;45010;53.640;10.578;2023-05-19T09:55:55;102181.88;;;25.48;30.16
59240;BME280;45010;53.640;10.578;2023-05-19T09:59:00;102185.41;;;25.56;30.08
59240;BME280;45010;53.640;10.578;2023-05-19T10:02:02;102178.84;;;25.58;30.37
59240;BME280;45010;53.640;10.578;2023-05-19T10:05:03;102185.81;;;25.59;30.19
59240;BME280;45010;53.640;10.578;2023-05-19T10:08:05;102180.09;;;25.62;30.24
59240;BME280;45010;53.640;10.578;2023-05-19T10:11:07;102172.69;;;25.64;30.15
59240;BME280;45010;53.640;10.578;2023-05-19T10:14:07;102180.50;;;25.66;30.09
59240;BME280;45010;53.640;10.578;2023-05-19T10:17:08;102170.63;;;25.80;29.92
59240;BME280;45010;53.640;10.578;2023-05-19T10:20:15;102162.41;;;25.68;29.93
59240;BME280;45010;53.640;10.578;2023-05-19T10:23:16;102162.81;;;25.65;30.03
59240;BME280;45010;53.640;10.578;2023-05-19T10:26:16;102161.56;;;25.68;30.05
59240;BME280;45010;53.640;10.578;2023-05-19T10:29:22;102162.81;;;25.72;30.10
59240;BME280;45010;53.640;10.578;2023-05-19T10:32:27;102157.09;;;25.75;30.35
59240;BME280;45010;53.640;10.578;2023-05-19T10:39:04;102142.28;;;25.79;29.68
59240;BME280;45010;53.640;10.578;2023-05-19T10:42:15;102146.59;;;25.80;29.94
59240;BME280;45010;53.640;10.578;2023-05-19T10:45:22;102147.00;;;25.77;29.98
59240;BME280;45010;53.640;10.578;2023-05-19T10:48:26;102150.50;;;25.84;30.02
59240;BME280;45010;53.640;10.578;2023-05-19T10:51:32;102138.56;;;25.80;29.87
59240;BME280;45010;53.640;10.578;2023-05-19T10:54:41;102133.66;;;25.77;29.82
59240;BME280;45010;53.640;10.578;2023-05-19T10:57:54;102134.69;;;25.89;30.06
59240;BME280;45010;53.640;10.578;2023-05-19T11:01:00;102138.19;;;25.90;29.67
59240;BME280;45010;53.640;10.578;2023-05-19T11:04:05;102144.97;;;25.92;29.70
59240;BME280;45010;53.640;10.578;2023-05-19T11:07:08;102138.59;;;25.94;29.52
59240;BME280;45010;53.640;10.578;2023-05-19T11:10:09;102134.88;;;25.95;29.69
59240;BME280;45010;53.640;10.578;2023-05-19T11:13:18;102121.13;;;25.91;29.75
59240;BME280;45010;53.640;10.578;2023-05-19T11:16:26;102130.78;;;25.99;29.78
59240;BME280;45010;53.640;10.578;2023-05-19T11:19:31;102097.06;;;25.84;29.64
59240;BME280;45010;53.640;10.578;2023-05-19T11:22:32;102130.97;;;26.04;29.38
59240;BME280;45010;53.640;10.578;2023-05-19T11:25:46;102120.09;;;25.99;29.34
59240;BME280;45010;53.640;10.578;2023-05-19T11:28:46;102131.59;;;26.06;29.79
59240;BME280;45010;53.640;10.578;2023-05-19T11:31:47;102127.06;;;26.06;29.47
59240;BME280;45010;53.640;10.578;2023-05-19T11:34:48;102103.22;;;25.91;29.72
59240;BME280;45010;53.640;10.578;2023-05-19T11:37:49;102119.44;;;26.10;29.89
59240;BME280;45010;53.640;10.578;2023-05-19T11:40:53;102121.09;;;26.11;29.71
59240;BME280;45010;53.640;10.578;2023-05-19T11:43:53;102120.88;;;26.13;29.78
59240;BME280;45010;53.640;10.578;2023-05-19T11:46:53;102112.66;;;26.14;29.61
59240;BME280;45010;53.640;10.578;2023-05-19T11:49:54;102117.59;;;26.17;29.82
59240;BME280;45010;53.640;10.578;2023-05-19T11:52:55;102105.88;;;26.18;29.96
59240;BME280;45010;53.640;10.578;2023-05-19T11:56:02;102117.16;;;26.21;29.82
59240;BME280;45010;53.640;10.578;2023-05-19T11:59:02;102089.81;;;26.12;29.79
59240;BME280;45010;53.640;10.578;2023-05-19T12:02:15;102102.38;;;26.18;29.82
59240;BME280;45010;53.640;10.578;2023-05-19T12:05:18;102088.19;;;26.17;29.92
59240;BME280;45010;53.640;10.578;2023-05-19T12:08:19;102102.41;;;26.25;29.66
59240;BME280;45010;53.640;10.578;2023-05-19T12:11:20;102104.88;;;26.26;29.93
59240;BME280;45010;53.640;10.578;2023-05-19T12:14:22;102099.53;;;26.26;29.96
59240;BME280;45010;53.640;10.578;2023-05-19T12:17:22;102095.81;;;26.27;29.51
59240;BME280;45010;53.640;10.578;2023-05-19T12:20:23;102095.41;;;26.24;29.70
59240;BME280;45010;53.640;10.578;2023-05-19T12:23:24;102098.28;;;26.29;29.94
59240;BME280;45010;53.640;10.578;2023-05-19T12:26:26;102099.09;;;26.29;29.88
59240;BME280;45010;53.640;10.578;2023-05-19T12:29:27;102090.84;;;26.31;29.56
59240;BME280;45010;53.640;10.578;2023-05-19T12:32:28;102086.31;;;26.31;29.90
59240;BME280;45010;53.640;10.578;2023-05-19T12:35:29;102075.22;;;26.28;29.86
59240;BME280;45010;53.640;10.578;2023-05-19T12:38:32;102083.44;;;26.33;29.69
59240;BME280;45010;53.640;10.578;2023-05-19T12:41:36;102089.63;;;26.34;29.77
59240;BME280;45010;53.640;10.578;2023-05-19T12:44:46;102068.88;;;26.29;29.71
59240;BME280;45010;53.640;10.578;2023-05-19T12:47:48;102074.81;;;26.31;29.68
59240;BME280;45010;53.640;10.578;2023-05-19T12:50:50;102058.34;;;26.21;29.91
59240;BME280;45010;53.640;10.578;2023-05-19T12:53:51;102072.09;;;26.38;29.45
59240;BME280;45010;53.640;10.578;2023-05-19T12:56:52;102051.34;;;26.19;29.78
59240;BME280;45010;53.640;10.578;2023-05-19T12:59:59;102079.31;;;26.37;29.74
59240;BME280;45010;53.640;10.578;2023-05-19T13:03:04;102077.69;;;26.36;29.53
59240;BME280;45010;53.640;10.578;2023-05-19T13:06:04;102081.41;;;26.35;29.90
59240;BME280;45010;53.640;10.578;2023-05-19T13:09:04;102071.50;;;26.36;29.74
59240;BME280;45010;53.640;10.578;2023-05-19T13:12:06;102071.91;;;26.39;30.07
59240;BME280;45010;53.640;10.578;2023-05-19T13:15:07;102076.84;;;26.42;29.67
59240;BME280;45010;53.640;10.578;2023-05-19T13:18:08;102065.75;;;26.39;29.68
59240;BME280;45010;53.640;10.578;2023-05-19T13:21:09;102072.94;;;26.45;30.13
59240;BME280;45010;53.640;10.578;2023-05-19T13:24:09;102072.69;;;26.46;29.92
59240;BME280;45010;53.640;10.578;2023-05-19T13:27:09;102064.47;;;26.48;30.18
59240;BME280;45010;53.640;10.578;2023-05-19T13:30:10;101996.28;;;26.05;30.05
59240;BME280;45010;53.640;10.578;2023-05-19T13:33:11;102069.41;;;26.51;29.80
59240;BME280;45010;53.640;10.578;2023-05-19T13:36:11;102071.03;;;26.52;30.10
59240;BME280;45010;53.640;10.578;2023-05-19T13:39:12;102077.19;;;26.53;30.00
59240;BME280;45010;53.640;10.578;2023-05-19T13:42:12;102078.22;;;26.52;29.72
59240;BME280;45010;53.640;10.578;2023-05-19T13:45:12;102066.94;;;26.50;29.68
59240;BME280;45010;53.640;10.578;2023-05-19T13:48:13;102068.38;;;26.52;30.02
59240;BME280;45010;53.640;10.578;2023-05-19T13:51:13;102078.88;;;26.54;29.96
59240;BME280;45010;53.640;10.578;2023-05-19T13:54:14;102065.69;;;26.52;29.88
59240;BME280;45010;53.640;10.578;2023-05-19T13:57:15;102057.06;;;26.43;29.76
59240;BME280;45010;53.640;10.578;2023-05-19T14:00:15;102065.09;;;26.50;29.62
59240;BME280;45010;53.640;10.578;2023-05-19T14:03:17;102061.59;;;26.50;29.95
59240;BME280;45010;53.640;10.578;2023-05-19T14:06:18;102051.91;;;26.49;29.77
59240;BME280;45010;53.640;10.578;2023-05-19T14:09:19;102056.63;;;26.46;29.58
59240;BME280;45010;53.640;10.578;2023-05-19T14:12:19;102054.59;;;26.49;29.24
59240;BME280;45010;53.640;10.578;2023-05-19T14:15:20;102057.06;;;26.50;29.67
59240;BME280;45010;53.640;10.578;2023-05-19T14:18:20;102049.84;;;26.51;29.60
59240;BME280;45010;53.640;10.578;2023-05-19T14:21:20;102036.50;;;26.44;29.77
59240;BME280;45010;53.640;10.578;2023-05-19T14:24:21;102043.44;;;26.52;29.74
59240;BME280;45010;53.640;10.578;2023-05-19T14:27:21;102043.44;;;26.52;29.64
59240;BME280;45010;53.640;10.578;2023-05-19T14:30:21;102043.44;;;26.52;29.54
59240;BME280;45010;53.640;10.578;2023-05-19T14:33:22;102035.25;;;26.46;29.59
59240;BME280;45010;53.640;10.578;2023-05-19T14:36:22;102052.09;;;26.54;29.52
59240;BME280;45010;53.640;10.578;2023-05-19T14:39:22;102043.44;;;26.52;29.57
59240;BME280;45010;53.640;10.578;2023-05-19T14:42:23;102045.53;;;26.50;29.61
59240;BME280;45010;53.640;10.578;2023-05-19T14:45:23;102048.63;;;26.46;29.35
59240;BME280;45010;53.640;10.578;2023-05-19T14:48:24;102047.41;;;26.42;29.34
59240;BME280;45010;53.640;10.578;2023-05-19T14:51:24;102038.75;;;26.40;29.51
59240;BME280;45010;53.640;10.578;2023-05-19T14:54:24;102048.03;;;26.38;29.38
59240;BME280;45010;53.640;10.578;2023-05-19T14:57:25;102045.59;;;26.36;29.65
59240;BME280;45010;53.640;10.578;2023-05-19T15:00:25;102045.59;;;26.36;29.67
59240;BME280;45010;53.640;10.578;2023-05-19T15:03:26;102039.59;;;26.34;29.53
59240;BME280;45010;53.640;10.578;2023-05-19T15:06:26;102044.34;;;26.32;29.53
59240;BME280;45010;53.640;10.578;2023-05-19T15:09:26;102049.69;;;26.32;29.40
59240;BME280;45010;53.640;10.578;2023-05-19T15:12:26;102052.59;;;26.30;29.75
59240;BME280;45010;53.640;10.578;2023-05-19T15:15:27;102051.78;;;26.30;29.67
59240;BME280;45010;53.640;10.578;2023-05-19T15:18:27;102048.28;;;26.29;29.28
59240;BME280;45010;53.640;10.578;2023-05-19T15:21:27;102056.50;;;26.28;29.52
59240;BME280;45010;53.640;10.578;2023-05-19T15:24:28;102052.19;;;26.27;29.56
59240;BME280;45010;53.640;10.578;2023-05-19T15:27:28;102048.91;;;26.25;29.73
59240;BME280;45010;53.640;10.578;2023-05-19T15:30:28;102064.94;;;26.25;29.58
59240;BME280;45010;53.640;10.578;2023-05-19T15:33:29;102059.59;;;26.25;29.57
59240;BME280;45010;53.640;10.578;2023-05-19T15:36:29;102055.91;;;26.26;29.76
59240;BME280;45010;53.640;10.578;2023-05-19T15:39:30;102048.91;;;26.25;29.67
59240;BME280;45010;53.640;10.578;2023-05-19T15:42:32;102040.69;;;26.26;29.62
59240;BME280;45010;53.640;10.578;2023-05-19T15:45:32;102045.19;;;26.26;29.50
59240;BME280;45010;53.640;10.578;2023-05-19T15:48:33;102038.22;;;26.25;29.80